KMKE

General Mitchell International Airport

Milwaukee, Wisconsin, USA
METAR KMKE 132352Z 00000KT 6SM BR BKN075 OVC090 02/00 A3011 RMK AO2 SLP203 T00220000 10056 20006 53007
Observed Flight Rules
Dec-13 @ 23:52 UTC (51 minutes ago) Visual Flight Rules
Visibility Clouds Conditions
6 miles
  • Broken at 7,500' AGL
  • Overcast at 9,000' AGL
  • Mist
Temperatures Readings
Current 2°C / 36°F
Dewpoint 0°C / 32°F
Humidity 87%
Altimeter 30.11" Hg
Pressure 1020.3 hPa
Elevation 206
METAR KMKE 132352Z 00000KT 6SM BR BKN075 OVC090 02/00 A3011 RMK AO2 SLP203 T00220000 10056 20006 53007
Observed Flight Rules
Dec-13 @ 23:52 UTC
(51 minutes ago)
VFR
Clouds
  • Broken at 7,500' AGL
  • Overcast at 9,000' AGL
Conditions
  • Mist
Temperature Dewpoint
2°C / 36°F 0°C / 32°F
Humidity Altimeter Pressure
87% 30.11" Hg 1020.3 hPa